Latest Coastal Weather Observations for Cape Flattery

IDQ60701

Issued at 11:52 pm EST Thursday 2 February 2023 (issued every 10 minutes, with the page automatically refreshed every 10 minutes)

About coastal observations | Map of coastal stations | Coastal observations for QLD | Marine services | Other Formats
Station Details ID: 031213 Name: CAPE FLATTERY Lat: -14.97 Lon: 145.31 Height: 18.5 m
Data from the previous 72 hours. | See also: Recent months at Cape Flattery
Date/Time
EST
Wind Sea
Height
m
Swell Vis
km
Cloud Weather Temp
°C
Press
MSL
hPa
Rain since
9am
mm
Dir  Spd
kts
Gust
kts
Height
m
Period
s
Dir
02/11:30pm NW 6 7 - - - - - - - 25.9 1003.4 5.0
02/11:00pm NW 8 11 - - - - - - - 26.4 1003.4 5.0
02/10:30pm NNW 7 10 - - - - - - - 26.2 1003.1 5.0
02/10:00pm NNW 6 7 - - - - - - - 26.3 1003.4 5.0
02/09:30pm CALM 0 3 - - - - - - - 25.9 1003.7 4.8
02/09:00pm CALM 0 3 - - - - - - Rain 25.7 1003.3 4.8
02/08:30pm WNW 5 9 - - - - - - - 25.7 1003.6 4.6
02/08:25pm W 8 11 - - - - - - - 25.7 1003.5 4.4
02/08:15pm WNW 10 13 - - - - - - - 25.8 1003.4 4.4
02/08:02pm WNW 11 15 - - - - - - - 26.4 1003.4 4.2
02/08:00pm WNW 11 15 - - - - - - - 26.6 1003.4 4.2
02/07:52pm NW 10 15 - - - - - - - 27.2 1003.3 4.2
02/07:30pm NNW 10 13 - - - - - - - 26.6 1003.2 0.2
02/07:16pm NW 11 17 - - - - - - - 25.7 1002.8 0.0
02/07:03pm NNW 12 16 - - - - - - - 26.5 1002.9 0.0
02/07:01pm NNW 13 17 - - - - - - - 26.4 1002.9 0.0
02/07:00pm NNW 13 19 - - - - - - - 26.3 1002.8 0.0
02/06:51pm NNW 16 21 - - - - - - - 26.1 1003.0 0.0
02/06:49pm NNW 16 21 - - - - - - - 26.4 1003.1 0.0
02/06:30pm NW 8 11 - - - - - - - 27.2 1002.9 0.0
02/06:00pm WNW 12 17 - - - - - - Thunderstorm 27.8 1002.7 0.0
02/05:49pm WNW 13 17 - - - - - - - 28.8 1002.7 0.0
02/05:39pm NNW 13 19 - - - - - - - 29.8 1002.2 0.0
02/05:30pm NNW 14 19 - - - - - - - 29.7 1001.8 0.0
02/05:00pm N 14 19 - - - - - - - 29.6 1001.1 0.0
02/04:30pm N 12 18 - - - - - - - 30.8 1000.5 0.0
02/04:00pm NNW 12 17 - - - - - - - 31.3 1000.6 0.0
02/03:30pm N 12 17 - - - - - - - 30.0 1000.7 0.0
02/03:00pm NNW 11 16 - - - - - - Thunderstorm 30.1 1001.1 0.0
02/02:30pm NNW 13 17 - - - - - - - 31.8 1001.6 0.0
02/02:00pm N 12 16 - - - - - - - 32.0 1002.0 0.0
02/01:30pm N 11 14 - - - - - - - 32.7 1002.5 0.0
02/01:00pm N 10 14 - - - - - - - 31.8 1003.1 0.0
02/12:30pm N 9 14 - - - - - - - 31.1 1003.7 0.0
02/12:00pm N 9 14 - - - - - - - 31.7 1004.0 0.0
02/11:30am N 8 13 - - - - - - - 32.4 1004.3 0.0
02/11:00am N 8 11 - - - - - - - 32.0 1004.6 0.0
02/10:30am NW 8 11 - - - - - - - 32.3 1004.7 0.0
02/10:00am NW 8 11 - - - - - - - 31.3 1005.0 0.0
02/09:30am WNW 8 11 - - - - - - - 30.4 1005.1 0.0
02/09:00am NW 7 10 - - - - - - - 29.7 1005.4 0.2
02/08:30am NNW 6 8 - - - - - - - 29.1 1005.7 0.2
02/08:00am NW 6 7 - - - - - - - 28.2 1005.7 0.2
02/07:30am WNW 4 5 - - - - - - - 27.0 1005.6 0.2
02/07:00am WNW 5 6 - - - - - - - 26.2 1005.3 0.2
02/06:30am WNW 5 5 - - - - - - - 25.5 1004.8 0.2
02/06:00am WNW 5 6 - - - - - - - 25.5 1004.3 0.2
02/05:30am WNW 6 6 - - - - - - - 25.7 1004.0 0.2
02/05:00am NW 5 6 - - - - - - - 25.8 1003.7 0.2
02/04:30am NW 5 7 - - - - - - - 25.8 1003.5 0.2
02/04:00am NW 4 5 - - - - - - - 25.8 1003.7 0.2
02/03:30am WNW 4 5 - - - - - - - 26.0 1003.9 0.2
02/03:00am CALM 0 4 - - - - - - - 26.1 1004.0 0.2
02/02:30am CALM 0 0 - - - - - - - 26.3 1004.0 0.2
02/02:00am CALM 0 0 - - - - - - - 26.6 1004.1 0.2
02/01:30am NW 5 7 - - - - - - - 27.1 1004.2 0.2
02/01:00am NW 6 8 - - - - - - - 27.4 1004.5 0.2
02/12:30am NW 8 10 - - - - - - - 27.8 1004.9 0.2
02/12:00am NW 7 9 - - - - - - - 27.7 1005.3 0.2
 
Date/Time
EST
Wind Sea
Height
m
Swell Vis
km
Cloud Weather Temp
°C
Press
MSL
hPa
Rain since
9am
mm
Dir  Spd
kts
Gust
kts
Height
m
Period
s
Dir
01/11:30pm NW 8 10 - - - - - - - 27.8 1005.7 0.2
01/11:00pm NW 7 9 - - - - - - - 27.7 1006.0 0.2
01/10:30pm NW 6 7 - - - - - - - 27.5 1006.0 0.2
01/10:00pm NW 8 11 - - - - - - - 27.9 1005.5 0.2
01/09:30pm NW 8 10 - - - - - - - 28.0 1005.4 0.2
01/09:00pm WNW 6 9 - - - - - - - 28.1 1005.3 0.2
01/08:30pm NW 11 16 - - - - - - - 29.0 1005.1 0.2
01/08:00pm NNW 13 18 - - - - - - - 29.2 1004.9 0.2
01/07:30pm NNW 12 17 - - - - - - - 29.2 1004.6 0.2
01/07:00pm NNW 12 15 - - - - - - - 29.1 1004.1 0.2
01/06:30pm NNW 11 15 - - - - - - - 29.3 1003.8 0.2
01/06:00pm NNW 11 15 - - - - - - - 29.3 1003.4 0.2
01/05:30pm NNW 10 13 - - - - - - - 29.6 1003.3 0.2
01/05:00pm NNW 10 14 - - - - - - - 30.1 1002.8 0.2
01/04:30pm NNW 11 13 - - - - - - - 29.8 1002.8 0.2
01/04:00pm NW 10 13 - - - - - - - 30.0 1002.8 0.2
01/03:30pm NNW 10 12 - - - - - - - 30.2 1003.3 0.2
01/03:00pm N 12 16 - - - - - - Thunderstorm 30.6 1003.6 0.2
01/02:30pm NNW 11 13 - - - - - - - 30.9 1004.2 0.2
01/02:00pm N 9 12 - - - - - - - 31.6 1004.4 0.2
01/01:30pm N 8 11 - - - - - - - 29.7 1004.7 0.2
01/01:00pm N 10 13 - - - - - - - 31.5 1005.1 0.2
01/12:30pm N 8 11 - - - - - - - 30.5 1005.6 0.2
01/12:00pm NNW 10 14 - - - - - - - 29.2 1006.1 0.2
01/11:30am NNW 5 8 - - - - - - - 31.6 1006.3 0.2
01/11:00am N 7 9 - - - - - - - 31.6 1006.5 0.2
01/10:30am WNW 5 11 - - - - - - - 32.6 1006.9 0.2
01/10:00am W 6 9 - - - - - - - 32.0 1007.1 0.2
01/09:30am SW 5 7 - - - - - - - 30.8 1007.0 0.2
01/09:00am WSW 8 10 - - - - - - - 29.7 1007.1 37.4
01/08:30am WSW 6 9 - - - - - - - 28.4 1007.2 37.4
01/08:00am SW 5 7 - - - - - - - 26.6 1006.9 37.4
01/07:30am SW 5 7 - - - - - - - 25.7 1006.6 37.4
01/07:00am SW 5 8 - - - - - - - 25.2 1006.5 37.4
01/06:30am SW 3 4 - - - - - - - 25.1 1006.3 37.4
01/06:00am ESE 1 3 - - - - - - - 25.1 1005.9 37.4
01/05:30am SW 1 4 - - - - - - - 25.4 1005.6 37.4
01/05:00am CALM 0 0 - - - - - - - 25.5 1005.1 37.4
01/04:30am CALM 0 0 - - - - - - - 25.6 1005.1 37.4
01/04:00am E 1 3 - - - - - - - 25.7 1004.9 37.4
01/03:30am CALM 0 0 - - - - - - - 25.8 1004.9 37.4
01/03:00am CALM 0 0 - - - - - - - 25.9 1004.8 37.4
01/02:30am E 2 4 - - - - - - - 25.9 1005.2 37.4
01/02:00am CALM 0 0 - - - - - - - 25.9 1005.5 37.4
01/01:30am CALM 0 0 - - - - - - - 26.1 1006.1 37.4
01/01:00am WNW 1 4 - - - - - - - 26.4 1006.7 37.4
01/12:30am NW 2 4 - - - - - - - 26.8 1007.1 37.4
01/12:00am CALM 0 0 - - - - - - - 26.8 1007.3 37.4
 
Date/Time
EST
Wind Sea
Height
m
Swell Vis
km
Cloud Weather Temp
°C
Press
MSL
hPa
Rain since
9am
mm
Dir  Spd
kts
Gust
kts
Height
m
Period
s
Dir
31/11:30pm WSW 3 4 - - - - - - - 27.1 1007.7 37.4
31/11:00pm WNW 4 5 - - - - - - - 27.3 1007.7 37.4
31/10:30pm W 5 6 - - - - - - - 27.9 1007.9 37.4
31/10:00pm NW 7 9 - - - - - - - 28.6 1007.6 37.4
31/09:30pm NNW 8 11 - - - - - - - 28.7 1007.5 37.4
31/09:00pm NNW 10 13 - - - - - - - 28.7 1007.0 37.4
31/08:30pm NNW 9 13 - - - - - - - 28.6 1006.5 37.4
31/08:00pm NNW 8 11 - - - - - - - 28.6 1006.4 37.4
31/07:30pm NNW 7 9 - - - - - - - 28.5 1006.3 37.4
31/07:00pm N 6 8 - - - - - - - 28.3 1006.1 37.4
31/06:30pm N 6 8 - - - - - - - 28.4 1005.9 37.4
31/06:00pm N 7 10 - - - - - - - 28.7 1005.6 37.4
31/05:30pm N 8 11 - - - - - - - 29.6 1005.1 37.4
31/05:00pm N 7 10 - - - - - - - 29.5 1004.5 37.4
31/04:30pm NNE 7 11 - - - - - - - 29.9 1004.4 37.4
31/04:00pm NE 8 12 - - - - - - - 29.9 1004.2 37.4
31/03:30pm NNE 9 13 - - - - - - - 30.2 1004.8 37.4
31/03:00pm NE 6 9 - - - - - - - 30.6 1005.2 37.4
31/02:30pm E 7 9 - - - - - - - 30.0 1005.4 37.4
31/02:00pm ENE 4 6 - - - - - - - 30.1 1005.8 37.4
31/01:30pm SSE 5 7 - - - - - - - 29.5 1006.4 37.4
31/01:00pm SSE 5 7 - - - - - - - 29.0 1006.8 37.4
31/12:30pm S 4 5 - - - - - - - 28.3 1007.3 37.2
31/12:00pm SSE 6 7 - - - - - - Recent precip. 27.3 1007.8 37.2
31/11:30am ESE 6 9 - - - - - - - 26.9 1008.3 36.4
31/11:00am NNE 5 8 - - - - - - - 26.7 1008.5 31.8
31/10:30am NW 6 14 - - - - - - - 26.5 1008.6 20.2
31/10:00am S 3 7 - - - - - - - 28.4 1008.8 2.0
31/09:30am SE 3 5 - - - - - - - 29.7 1008.7 0.0
31/09:00am SE 2 5 - - - - - - - 29.8 1008.6 1.6
31/08:30am ESE 4 6 - - - - - - - 28.9 1008.7 1.6
31/08:00am CALM 0 0 - - - - - - - 28.2 1008.4 1.6
31/07:30am E 2 3 - - - - - - - 27.5 1008.1 1.6
31/07:00am ENE 2 5 - - - - - - - 26.8 1007.8 1.6
31/06:30am CALM 0 0 - - - - - - - 26.2 1007.2 1.6
31/06:00am NE 4 5 - - - - - - - 25.9 1006.8 1.6
31/05:30am ESE 7 10 - - - - - - - 26.3 1006.8 1.6
31/05:00am ESE 8 11 - - - - - - - 26.2 1006.9 1.6
31/04:30am ESE 7 11 - - - - - - - 26.4 1006.9 1.6
31/04:00am ESE 7 10 - - - - - - - 26.9 1006.8 1.2
31/03:30am ESE 7 11 - - - - - - - 26.8 1006.8 0.2
31/03:00am ESE 5 6 - - - - - - - 25.9 1006.7 0.2
31/02:30am SE 4 5 - - - - - - - 25.9 1007.1 0.2
31/02:00am E 4 5 - - - - - - - 25.6 1007.6 0.2
31/01:30am ENE 5 6 - - - - - - - 25.9 1007.9 0.2
31/01:00am ESE 1 4 - - - - - - - 26.0 1008.4 0.2
31/12:30am E 5 7 - - - - - - - 26.5 1008.9 0.2
31/12:00am E 4 5 - - - - - - - 26.4 1009.5 0.2

Other formats

Comma delimited format used in spreadsheet applications
http://www.bom.gov.au/fwo/IDQ60701/IDQ60701.94188.axf

JavaScript Object Notation format (JSON) in row-major order
http://www.bom.gov.au/fwo/IDQ60701/IDQ60701.94188.json

Data quality

Most of these data are generated automatically and are frequently updated. Quality checks on data are not normally performed. It is possible for incorrect values to appear. Refer to information at About Latest Weather Observations and please check the disclaimer before using these data.